Time;durP1;ratioP1;P1;durP2;ratioP2;P2;SDS_P1;SDS_P2;PMS_P1;PMS_P2;Temp;Humidity;BMP_temperature;BMP_pressure;BME280_temperature;BME280_humidity;BME280_pressure;Samples;Min_cycle;Max_cycle;Signal;HPM_P1;HPM_P2
2023/04/27 00:00:36;;;;;;;4.70;3.28;;;;;;;;;;5000053;28;20026;-78
2023/04/27 00:03:04;;;;;;;6.35;3.55;;;;;;;;;;5001173;28;20034;-78
2023/04/27 00:05:37;;;;;;;4.60;3.00;;;;;;;;;;5000970;28;20027;-78
2023/04/27 00:08:06;;;;;;;3.53;2.72;;;;;;;;;;4999814;28;20039;-78
2023/04/27 00:10:32;;;;;;;5.93;3.22;;;;;;;;;;5000452;28;20041;-78
2023/04/27 00:12:58;;;;;;;5.25;3.00;;;;;;;;;;5000418;28;20054;-77
2023/04/27 00:15:23;;;;;;;3.25;2.58;;;;;;;;;;5000318;28;20034;-79
2023/04/27 00:17:49;;;;;;;4.40;2.90;;;;;;;;;;5000285;28;20035;-77
2023/04/27 00:20:15;;;;;;;5.32;2.83;;;;;;;;;;5000713;28;20046;-79
2023/04/27 00:22:40;;;;;;;4.45;2.70;;;;;;;;;;5000320;28;20202;-79
2023/04/27 00:25:06;;;;;;;4.45;2.70;;;;;;;;;;4999795;28;20397;-77
2023/04/27 00:27:32;;;;;;;4.15;3.00;;;;;;;;;;4999557;28;20029;-79
2023/04/27 00:29:57;;;;;;;5.10;2.95;;;;;;;;;;4997367;28;20027;-79
2023/04/27 00:32:22;;;;;;;4.18;2.75;;;;;;;;;;4989623;28;20029;-79
2023/04/27 00:34:48;;;;;;;4.63;2.55;;;;;;;;;;4989199;28;20133;-78
2023/04/27 00:37:13;;;;;;;4.03;2.50;;;;;;;;;;4989366;28;20041;-78
2023/04/27 00:39:39;;;;;;;5.35;2.80;;;;;;;;;;4989386;28;20045;-79
2023/04/27 00:42:05;;;;;;;3.65;2.60;;;;;;;;;;4989673;28;20037;-78
2023/04/27 00:44:30;;;;;;;4.30;3.00;;;;;;;;;;4988984;28;20048;-79
2023/04/27 00:46:57;;;;;;;4.70;2.80;;;;;;;;;;4989542;28;20569;-79
2023/04/27 00:49:25;;;;;;;4.63;3.00;;;;;;;;;;4989193;28;20026;-79
2023/04/27 00:51:51;;;;;;;5.53;2.80;;;;;;;;;;4989244;28;20083;-79
2023/04/27 00:54:19;;;;;;;3.42;2.75;;;;;;;;;;4989228;28;20513;-79
2023/04/27 00:56:46;;;;;;;3.83;2.40;;;;;;;;;;4989536;28;20080;-78
2023/04/27 00:59:12;;;;;;;4.97;2.38;;;;;;;;;;4989025;28;20061;-78
2023/04/27 01:01:37;;;;;;;3.50;2.67;;;;;;;;;;4989487;28;20022;-79
2023/04/27 01:04:03;;;;;;;4.63;2.50;;;;;;;;;;4989070;28;20105;-78
2023/04/27 01:06:28;;;;;;;3.83;2.53;;;;;;;;;;4989127;28;20033;-78
2023/04/27 01:08:54;;;;;;;4.55;2.60;;;;;;;;;;4989163;28;20032;-78
2023/04/27 01:11:20;;;;;;;4.35;2.50;;;;;;;;;;4989152;28;20427;-77
2023/04/27 01:13:45;;;;;;;3.35;2.58;;;;;;;;;;4989192;28;20034;-79
2023/04/27 01:16:11;;;;;;;2.88;2.20;;;;;;;;;;4989017;28;20081;-79
2023/04/27 01:18:36;;;;;;;3.33;2.20;;;;;;;;;;4989181;28;20029;-78
2023/04/27 01:21:02;;;;;;;3.33;2.28;;;;;;;;;;4992554;28;20032;-78
2023/04/27 01:23:27;;;;;;;4.25;2.40;;;;;;;;;;4992589;28;20027;-76
2023/04/27 01:25:53;;;;;;;4.10;2.75;;;;;;;;;;4992416;28;20483;-78
2023/04/27 01:28:18;;;;;;;7.32;2.83;;;;;;;;;;4992583;28;20025;-77
2023/04/27 01:30:43;;;;;;;4.15;2.72;;;;;;;;;;4990903;28;20509;-79
2023/04/27 01:33:09;;;;;;;6.20;2.50;;;;;;;;;;4992646;28;20025;-79
2023/04/27 01:35:35;;;;;;;3.13;2.28;;;;;;;;;;4991919;28;20033;-78
2023/04/27 01:38:01;;;;;;;3.28;2.38;;;;;;;;;;4992477;28;20026;-78
2023/04/27 01:40:27;;;;;;;3.03;2.25;;;;;;;;;;4992209;28;20064;-79
2023/04/27 01:42:52;;;;;;;4.53;2.50;;;;;;;;;;4990750;28;20490;-78
2023/04/27 01:45:17;;;;;;;3.00;2.40;;;;;;;;;;4992073;28;20073;-79
2023/04/27 01:47:43;;;;;;;2.60;2.13;;;;;;;;;;4990775;28;20031;-78
2023/04/27 01:50:08;;;;;;;3.35;2.20;;;;;;;;;;4991987;28;20690;-78
2023/04/27 01:52:34;;;;;;;3.00;2.20;;;;;;;;;;4990837;28;20026;-79
2023/04/27 01:54:59;;;;;;;3.22;2.20;;;;;;;;;;4992034;28;20168;-78
2023/04/27 01:57:25;;;;;;;2.90;2.10;;;;;;;;;;4992082;28;20494;-78
2023/04/27 01:59:51;;;;;;;4.88;2.58;;;;;;;;;;4991725;28;20030;-77
2023/04/27 02:02:16;;;;;;;3.65;2.40;;;;;;;;;;4991980;28;20062;-79
2023/04/27 02:04:42;;;;;;;4.80;2.97;;;;;;;;;;4990317;28;20108;-78
2023/04/27 02:07:07;;;;;;;5.18;2.60;;;;;;;;;;4991720;28;20019;-78
2023/04/27 02:09:33;;;;;;;6.18;2.70;;;;;;;;;;4991837;28;20125;-77
2023/04/27 02:11:58;;;;;;;6.80;2.75;;;;;;;;;;4991674;28;20041;-77
2023/04/27 02:14:23;;;;;;;4.93;2.80;;;;;;;;;;4991553;28;20037;-79
2023/04/27 02:16:49;;;;;;;5.80;2.80;;;;;;;;;;4991452;28;20547;-77
2023/04/27 02:19:14;;;;;;;4.18;2.30;;;;;;;;;;4991513;28;20040;-77
2023/04/27 02:21:40;;;;;;;4.13;2.65;;;;;;;;;;4991466;28;20084;-79
2023/04/27 02:24:05;;;;;;;4.28;2.40;;;;;;;;;;4991673;28;20027;-78
2023/04/27 02:26:31;;;;;;;6.30;2.40;;;;;;;;;;4991286;28;20030;-78
2023/04/27 02:28:57;;;;;;;4.05;2.60;;;;;;;;;;4991491;28;20037;-78
2023/04/27 02:31:23;;;;;;;5.00;2.58;;;;;;;;;;4991145;28;20026;-78
2023/04/27 02:33:48;;;;;;;3.55;2.33;;;;;;;;;;4989825;28;20022;-77
2023/04/27 02:36:13;;;;;;;7.25;2.63;;;;;;;;;;4990786;28;20019;-78
2023/04/27 02:38:39;;;;;;;5.20;2.42;;;;;;;;;;4991352;28;20490;-77
2023/04/27 02:41:04;;;;;;;3.92;2.50;;;;;;;;;;4991027;28;20022;-78
2023/04/27 02:43:30;;;;;;;3.58;2.40;;;;;;;;;;4989883;28;20022;-78
2023/04/27 02:45:55;;;;;;;3.95;2.50;;;;;;;;;;4990766;28;20642;-78
2023/04/27 02:48:20;;;;;;;3.03;2.00;;;;;;;;;;4990943;28;20030;-78
2023/04/27 02:50:46;;;;;;;4.05;2.30;;;;;;;;;;4989317;28;20022;-77
2023/04/27 02:53:11;;;;;;;5.45;2.40;;;;;;;;;;4990935;28;20030;-78
2023/04/27 02:55:37;;;;;;;3.70;2.40;;;;;;;;;;4990584;28;20026;-78
2023/04/27 02:58:03;;;;;;;3.95;2.30;;;;;;;;;;4990758;28;20066;-78
2023/04/27 03:00:29;;;;;;;4.10;2.67;;;;;;;;;;4990764;28;20069;-78
2023/04/27 03:02:55;;;;;;;3.38;2.35;;;;;;;;;;4990732;28;20372;-78
2023/04/27 03:05:20;;;;;;;3.95;2.47;;;;;;;;;;4990579;28;20075;-78
2023/04/27 03:07:46;;;;;;;3.55;2.45;;;;;;;;;;4990498;28;20056;-78
2023/04/27 03:10:11;;;;;;;3.30;2.28;;;;;;;;;;4990576;28;20487;-78
2023/04/27 03:12:37;;;;;;;3.25;2.47;;;;;;;;;;4990437;28;20034;-77
2023/04/27 03:15:02;;;;;;;3.80;2.45;;;;;;;;;;4990503;28;20052;-78
2023/04/27 03:17:28;;;;;;;2.65;2.22;;;;;;;;;;4990291;28;20454;-78
2023/04/27 03:19:53;;;;;;;4.50;2.78;;;;;;;;;;4990874;28;20026;-78
2023/04/27 03:22:19;;;;;;;4.38;2.58;;;;;;;;;;4990147;28;20117;-77
2023/04/27 03:24:44;;;;;;;3.95;2.72;;;;;;;;;;4990342;28;20034;-77
2023/04/27 03:27:10;;;;;;;5.75;2.50;;;;;;;;;;4990278;28;20034;-78
2023/04/27 03:29:35;;;;;;;4.05;2.63;;;;;;;;;;4990173;28;20486;-78
2023/04/27 03:32:03;;;;;;;3.40;2.67;;;;;;;;;;4988681;28;20117;-78
2023/04/27 03:34:30;;;;;;;4.43;2.90;;;;;;;;;;4990290;28;20022;-78
2023/04/27 03:36:55;;;;;;;4.80;2.50;;;;;;;;;;4989764;28;20613;-78
2023/04/27 03:39:21;;;;;;;4.05;2.60;;;;;;;;;;4988843;28;20027;-78
2023/04/27 03:41:47;;;;;;;3.63;2.20;;;;;;;;;;4989674;28;20030;-78
2023/04/27 03:44:12;;;;;;;5.53;2.70;;;;;;;;;;4990211;28;20026;-78
2023/04/27 03:46:37;;;;;;;5.18;2.67;;;;;;;;;;4989662;28;20045;-78
2023/04/27 03:49:03;;;;;;;4.15;2.47;;;;;;;;;;4989968;28;20030;-78
2023/04/27 03:51:31;;;;;;;3.28;2.55;;;;;;;;;;4989972;28;20023;-78
2023/04/27 03:53:56;;;;;;;3.70;2.80;;;;;;;;;;4990133;28;20624;-78
2023/04/27 03:56:22;;;;;;;3.55;2.90;;;;;;;;;;4989638;28;20033;-76
2023/04/27 03:58:47;;;;;;;3.10;2.10;;;;;;;;;;4989990;28;20082;-77
2023/04/27 04:01:13;;;;;;;4.03;2.30;;;;;;;;;;4989494;28;20026;-77
2023/04/27 04:03:39;;;;;;;3.75;2.55;;;;;;;;;;4989911;28;20030;-78
2023/04/27 04:06:05;;;;;;;3.22;2.47;;;;;;;;;;4989770;28;20026;-78
2023/04/27 04:08:31;;;;;;;4.80;2.70;;;;;;;;;;4989942;28;20029;-78
2023/04/27 04:10:57;;;;;;;4.20;2.22;;;;;;;;;;4989923;28;20517;-77
2023/04/27 04:13:22;;;;;;;3.70;2.55;;;;;;;;;;4989742;28;20018;-78
2023/04/27 04:15:47;;;;;;;4.00;2.88;;;;;;;;;;4989577;28;20030;-78
2023/04/27 04:18:13;;;;;;;3.08;2.50;;;;;;;;;;4989481;28;20089;-78
2023/04/27 04:20:38;;;;;;;3.88;2.30;;;;;;;;;;4989516;28;20034;-74
2023/04/27 04:23:04;;;;;;;3.10;2.33;;;;;;;;;;4989455;28;20061;-78
2023/04/27 04:25:30;;;;;;;3.50;2.60;;;;;;;;;;4989588;28;20026;-78
2023/04/27 04:27:56;;;;;;;3.97;2.65;;;;;;;;;;4989340;28;20030;-78
2023/04/27 04:30:22;;;;;;;3.47;2.60;;;;;;;;;;4989678;28;20026;-78
2023/04/27 04:32:48;;;;;;;4.15;2.53;;;;;;;;;;4989377;28;20620;-77
2023/04/27 04:35:16;;;;;;;5.00;2.47;;;;;;;;;;4989404;28;20030;-78
2023/04/27 04:37:42;;;;;;;3.10;2.30;;;;;;;;;;4989477;28;20030;-78
2023/04/27 04:40:08;;;;;;;3.58;2.60;;;;;;;;;;4989517;28;20033;-78
2023/04/27 04:42:37;;;;;;;4.30;2.70;;;;;;;;;;4989451;28;20594;-78
2023/04/27 04:45:03;;;;;;;3.33;2.45;;;;;;;;;;4989462;28;20026;-78
2023/04/27 04:47:33;;;;;;;3.28;2.65;;;;;;;;;;4989286;28;20026;-78
2023/04/27 04:49:58;;;;;;;3.50;2.75;;;;;;;;;;4989660;28;20034;-78
2023/04/27 04:52:24;;;;;;;3.40;2.42;;;;;;;;;;4989034;28;20030;-78
2023/04/27 04:54:52;;;;;;;3.50;2.60;;;;;;;;;;4991195;28;20015;-78
2023/04/27 04:57:18;;;;;;;3.88;2.58;;;;;;;;;;4992634;28;20028;-77
2023/04/27 04:59:46;;;;;;;3.88;2.60;;;;;;;;;;4993091;28;20023;-79
2023/04/27 05:02:12;;;;;;;3.67;2.42;;;;;;;;;;4992930;28;20101;-77
2023/04/27 05:04:37;;;;;;;3.30;2.55;;;;;;;;;;4993194;28;20541;-76
2023/04/27 05:07:03;;;;;;;3.00;2.35;;;;;;;;;;4992672;28;20026;-79
2023/04/27 05:09:29;;;;;;;4.55;2.80;;;;;;;;;;4992956;28;20034;-78
2023/04/27 05:11:54;;;;;;;3.60;2.50;;;;;;;;;;4992629;28;20627;-77
2023/04/27 05:14:20;;;;;;;3.47;2.50;;;;;;;;;;4992794;28;20474;-78
2023/04/27 05:16:47;;;;;;;3.33;2.45;;;;;;;;;;4992690;28;20033;-79
2023/04/27 05:19:17;;;;;;;4.72;2.63;;;;;;;;;;4992669;28;20026;-78
2023/04/27 05:21:43;;;;;;;4.95;2.85;;;;;;;;;;4992724;28;20023;-79
2023/04/27 05:24:08;;;;;;;3.90;2.78;;;;;;;;;;4992575;28;20060;-75
2023/04/27 05:26:33;;;;;;;4.38;2.92;;;;;;;;;;4992564;28;20022;-79
2023/04/27 05:28:59;;;;;;;3.20;2.47;;;;;;;;;;4992369;28;20104;-79
2023/04/27 05:31:25;;;;;;;3.42;2.72;;;;;;;;;;4992455;28;20033;-78
2023/04/27 05:33:50;;;;;;;4.03;2.80;;;;;;;;;;4992339;28;20432;-79
2023/04/27 05:36:15;;;;;;;3.35;2.30;;;;;;;;;;4992116;28;20026;-77
2023/04/27 05:38:41;;;;;;;3.75;2.90;;;;;;;;;;4992616;28;20521;-78
2023/04/27 05:41:07;;;;;;;4.28;2.85;;;;;;;;;;4992465;28;20038;-76
2023/04/27 05:43:33;;;;;;;4.13;2.60;;;;;;;;;;4992102;28;20025;-78
2023/04/27 05:45:59;;;;;;;3.05;2.47;;;;;;;;;;4992232;28;20045;-79
2023/04/27 05:48:25;;;;;;;5.10;3.00;;;;;;;;;;4992299;28;20383;-77
2023/04/27 05:51:00;;;;;;;4.70;3.20;;;;;;;;;;4992113;28;20552;-72
2023/04/27 05:53:25;;;;;;;4.65;2.80;;;;;;;;;;4991991;28;20485;-75
2023/04/27 05:55:50;;;;;;;3.58;2.92;;;;;;;;;;4992016;28;20034;-76
2023/04/27 05:58:16;;;;;;;5.03;2.70;;;;;;;;;;4991642;28;20046;-78
2023/04/27 06:00:42;;;;;;;3.50;3.03;;;;;;;;;;4992241;28;20581;-77
2023/04/27 06:03:07;;;;;;;4.72;3.10;;;;;;;;;;4991695;28;20125;-78
2023/04/27 06:05:33;;;;;;;3.40;2.90;;;;;;;;;;4991493;28;20109;-77
2023/04/27 06:07:59;;;;;;;4.72;3.10;;;;;;;;;;4991087;28;20061;-77
2023/04/27 06:10:24;;;;;;;4.78;3.13;;;;;;;;;;4991875;28;20031;-73
2023/04/27 06:12:49;;;;;;;5.43;3.80;;;;;;;;;;4991817;28;20031;-78
2023/04/27 06:15:15;;;;;;;4.57;3.33;;;;;;;;;;4991865;28;20510;-76
2023/04/27 06:17:42;;;;;;;3.70;3.00;;;;;;;;;;4991778;28;20616;-77
2023/04/27 06:20:08;;;;;;;4.18;2.95;;;;;;;;;;4991737;28;20597;-77
2023/04/27 06:22:37;;;;;;;4.20;2.97;;;;;;;;;;4991474;28;20110;-77
2023/04/27 06:25:04;;;;;;;4.57;2.97;;;;;;;;;;4991448;28;20034;-75
2023/04/27 06:27:29;;;;;;;4.50;3.08;;;;;;;;;;4991415;28;20053;-77
2023/04/27 06:29:55;;;;;;;5.72;3.58;;;;;;;;;;4991408;28;20038;-78
2023/04/27 06:32:20;;;;;;;5.10;3.30;;;;;;;;;;4991431;28;20101;-76
2023/04/27 06:34:46;;;;;;;4.05;3.17;;;;;;;;;;4991281;28;20418;-79
2023/04/27 06:37:11;;;;;;;3.78;2.88;;;;;;;;;;4990770;28;20390;-77
2023/04/27 06:39:37;;;;;;;4.18;3.13;;;;;;;;;;4990916;28;20026;-77
2023/04/27 06:42:03;;;;;;;4.95;3.30;;;;;;;;;;4991256;28;20030;-77
2023/04/27 06:44:29;;;;;;;4.38;2.67;;;;;;;;;;4991096;28;20045;-78
2023/04/27 06:46:54;;;;;;;4.30;2.83;;;;;;;;;;4990816;28;20632;-79
2023/04/27 06:49:20;;;;;;;4.65;2.80;;;;;;;;;;4990264;28;20410;-79
2023/04/27 06:51:45;;;;;;;5.95;2.80;;;;;;;;;;4990351;28;20034;-79
2023/04/27 06:54:11;;;;;;;3.33;2.80;;;;;;;;;;4988702;28;20565;-78
2023/04/27 06:56:37;;;;;;;4.75;2.90;;;;;;;;;;4990195;28;20445;-79
2023/04/27 06:59:02;;;;;;;4.65;2.65;;;;;;;;;;4989859;28;20553;-79
2023/04/27 07:01:28;;;;;;;5.18;2.60;;;;;;;;;;4989080;28;20026;-79
2023/04/27 07:03:53;;;;;;;3.70;2.60;;;;;;;;;;4990612;28;20398;-79
2023/04/27 07:06:18;;;;;;;4.22;2.10;;;;;;;;;;4990470;28;20391;-78
2023/04/27 07:08:44;;;;;;;5.85;2.47;;;;;;;;;;4990436;28;20034;-79
2023/04/27 07:11:09;;;;;;;4.93;2.30;;;;;;;;;;4990853;28;20026;-76
2023/04/27 07:13:35;;;;;;;3.47;1.98;;;;;;;;;;4990572;28;20729;-77
2023/04/27 07:16:00;;;;;;;3.38;2.00;;;;;;;;;;4989484;28;20501;-78
2023/04/27 07:18:29;;;;;;;4.15;1.90;;;;;;;;;;4989453;28;20533;-78
2023/04/27 07:20:56;;;;;;;4.00;1.65;;;;;;;;;;4990066;28;20037;-77
2023/04/27 07:23:22;;;;;;;4.10;2.00;;;;;;;;;;4990298;28;20120;-76
2023/04/27 07:25:48;;;;;;;4.30;1.50;;;;;;;;;;4999333;28;20026;-76
2023/04/27 07:28:13;;;;;;;2.25;1.73;;;;;;;;;;4987880;28;20030;-77
2023/04/27 07:30:40;;;;;;;2.85;1.52;;;;;;;;;;4989406;28;20022;-78
2023/04/27 07:33:06;;;;;;;3.30;1.40;;;;;;;;;;4988386;28;20033;-74
2023/04/27 07:35:31;;;;;;;3.13;1.50;;;;;;;;;;4990347;28;20038;-76
2023/04/27 07:38:01;;;;;;;4.32;1.70;;;;;;;;;;4989265;28;20137;-76
2023/04/27 07:40:28;;;;;;;2.10;1.45;;;;;;;;;;4989894;28;20100;-78
2023/04/27 07:42:54;;;;;;;3.05;1.50;;;;;;;;;;4994489;28;20407;-76
2023/04/27 07:45:21;;;;;;;5.35;1.70;;;;;;;;;;4993735;28;20080;-77
2023/04/27 07:47:46;;;;;;;3.30;1.50;;;;;;;;;;4991877;28;20034;-78
2023/04/27 07:50:13;;;;;;;3.58;1.63;;;;;;;;;;4997025;28;20089;-76
2023/04/27 07:52:39;;;;;;;3.75;1.60;;;;;;;;;;4994394;28;20041;-78
2023/04/27 07:55:05;;;;;;;3.85;1.60;;;;;;;;;;4993108;28;20022;-78
2023/04/27 07:57:30;;;;;;;3.83;1.40;;;;;;;;;;4991211;28;20412;-76
2023/04/27 07:59:59;;;;;;;3.08;1.70;;;;;;;;;;4992174;28;20034;-80
2023/04/27 08:02:29;;;;;;;4.10;1.63;;;;;;;;;;4997841;28;20030;-79
2023/04/27 08:04:54;;;;;;;3.17;1.50;;;;;;;;;;4997254;28;20022;-78
2023/04/27 08:07:20;;;;;;;2.70;1.70;;;;;;;;;;4999015;28;20266;-77
2023/04/27 08:09:45;;;;;;;2.70;1.42;;;;;;;;;;4999613;28;20081;-78
2023/04/27 08:12:10;;;;;;;2.45;1.40;;;;;;;;;;4996859;28;20093;-76
2023/04/27 08:14:36;;;;;;;4.13;1.60;;;;;;;;;;4997501;28;20030;-76
2023/04/27 08:17:01;;;;;;;2.33;1.60;;;;;;;;;;4997393;28;20026;-78
2023/04/27 08:19:26;;;;;;;1.70;1.30;;;;;;;;;;4995529;28;20404;-79
2023/04/27 08:21:52;;;;;;;2.00;1.38;;;;;;;;;;4994784;28;20357;-77
2023/04/27 08:24:19;;;;;;;2.60;1.40;;;;;;;;;;4997824;28;20034;-79
2023/04/27 08:26:45;;;;;;;3.53;1.60;;;;;;;;;;4995196;28;20044;-78
2023/04/27 08:29:10;;;;;;;2.83;1.50;;;;;;;;;;4995125;28;20390;-78
2023/04/27 08:31:35;;;;;;;3.30;1.30;;;;;;;;;;4991618;28;20066;-77
2023/04/27 08:34:01;;;;;;;2.05;1.38;;;;;;;;;;4994018;28;20064;-78
2023/04/27 08:36:27;;;;;;;5.47;1.50;;;;;;;;;;4994526;28;20026;-75
2023/04/27 08:38:53;;;;;;;3.65;1.70;;;;;;;;;;4995737;28;20030;-77
2023/04/27 08:41:20;;;;;;;2.05;1.25;;;;;;;;;;4993655;28;20029;-78
2023/04/27 08:43:48;;;;;;;2.65;1.45;;;;;;;;;;4991700;28;20478;-78
2023/04/27 08:46:17;;;;;;;2.55;1.10;;;;;;;;;;4993161;28;20033;-77
2023/04/27 08:48:43;;;;;;;2.65;1.40;;;;;;;;;;4992855;28;20037;-73
2023/04/27 08:51:10;;;;;;;3.67;1.15;;;;;;;;;;4996539;28;20022;-72
2023/04/27 08:53:35;;;;;;;2.60;1.20;;;;;;;;;;4997929;28;20218;-71
2023/04/27 08:56:01;;;;;;;2.00;1.13;;;;;;;;;;4999728;28;20378;-71
2023/04/27 08:58:36;;;;;;;3.85;1.33;;;;;;;;;;4993617;28;20046;-77
2023/04/27 09:01:06;;;;;;;2.65;1.00;;;;;;;;;;4992827;28;20050;-77
2023/04/27 09:03:33;;;;;;;1.70;1.10;;;;;;;;;;4993738;28;20654;-77
2023/04/27 09:06:02;;;;;;;1.48;1.05;;;;;;;;;;4992846;28;20026;-77
2023/04/27 09:08:28;;;;;;;2.60;1.00;;;;;;;;;;4992455;28;20054;-77
2023/04/27 09:10:54;;;;;;;1.85;1.00;;;;;;;;;;4992226;28;20027;-77
2023/04/27 09:13:20;;;;;;;2.45;1.10;;;;;;;;;;4993275;28;20426;-79
2023/04/27 09:15:50;;;;;;;2.85;1.08;;;;;;;;;;4991983;28;20038;-79
2023/04/27 09:18:20;;;;;;;4.50;1.00;;;;;;;;;;4994539;28;20065;-78
2023/04/27 09:20:48;;;;;;;5.20;1.20;;;;;;;;;;4992085;28;20041;-78
2023/04/27 09:23:30;;;;;;;2.05;0.90;;;;;;;;;;4992535;28;20049;-78
2023/04/27 09:26:00;;;;;;;1.33;0.80;;;;;;;;;;4992049;28;20092;-79
2023/04/27 09:28:27;;;;;;;1.40;0.82;;;;;;;;;;4992409;28;20138;-76
2023/04/27 09:30:57;;;;;;;0.95;0.85;;;;;;;;;;4990681;28;20382;-80
2023/04/27 09:33:25;;;;;;;2.00;0.80;;;;;;;;;;4994823;28;20022;-78
2023/04/27 09:35:51;;;;;;;1.33;0.75;;;;;;;;;;4991911;28;20039;-77
2023/04/27 09:38:21;;;;;;;2.63;0.90;;;;;;;;;;4991437;28;20053;-77
2023/04/27 09:40:48;;;;;;;1.80;0.90;;;;;;;;;;4996719;28;20037;-77
2023/04/27 09:43:14;;;;;;;2.17;0.90;;;;;;;;;;4996050;28;20033;-77
2023/04/27 09:45:40;;;;;;;3.08;0.90;;;;;;;;;;4994189;28;20062;-76
2023/04/27 09:48:06;;;;;;;3.28;1.00;;;;;;;;;;4993649;28;20030;-76
2023/04/27 09:50:36;;;;;;;3.97;1.10;;;;;;;;;;4991877;28;20621;-75
2023/04/27 09:53:04;;;;;;;2.63;0.90;;;;;;;;;;4996836;28;20033;-75
2023/04/27 09:55:34;;;;;;;1.65;0.90;;;;;;;;;;5002424;28;20026;-75
2023/04/27 09:58:47;;;;;;;1.92;0.80;;;;;;;;;;5002640;28;20095;-75
2023/04/27 10:01:51;;;;;;;1.60;1.00;;;;;;;;;;4961111;29;20039;-77
2023/04/27 10:04:40;;;;;;;2.05;0.80;;;;;;;;;;4977438;28;20038;-77
2023/04/27 10:07:11;;;;;;;1.15;0.70;;;;;;;;;;4999214;28;20018;-75
2023/04/27 10:09:48;;;;;;;2.45;0.80;;;;;;;;;;4994612;28;20054;-78
2023/04/27 10:12:20;;;;;;;1.58;1.05;;;;;;;;;;4993898;28;20038;-75
2023/04/27 10:15:15;;;;;;;2.38;1.00;;;;;;;;;;5001701;28;20026;-78
2023/04/27 10:17:57;;;;;;;2.42;1.00;;;;;;;;;;4996519;28;20277;-77
2023/04/27 10:20:36;;;;;;;1.83;0.95;;;;;;;;;;4993330;28;20364;-75
2023/04/27 10:23:02;;;;;;;2.85;0.90;;;;;;;;;;4993361;28;20022;-76
2023/04/27 10:25:35;;;;;;;3.20;0.80;;;;;;;;;;4992421;28;20034;-77
2023/04/27 10:28:02;;;;;;;1.88;0.82;;;;;;;;;;4991638;28;20105;-74
2023/04/27 10:30:35;;;;;;;2.40;1.00;;;;;;;;;;4989853;28;20065;-77
2023/04/27 10:33:07;;;;;;;2.03;0.90;;;;;;;;;;4990615;28;20031;-76
2023/04/27 10:35:44;;;;;;;3.63;0.90;;;;;;;;;;4988698;28;20085;-75
2023/04/27 10:38:20;;;;;;;2.63;1.20;;;;;;;;;;4995178;28;20062;-76
2023/04/27 10:41:03;;;;;;;3.05;1.20;;;;;;;;;;4992476;28;20026;-77
2023/04/27 10:43:31;;;;;;;1.67;1.00;;;;;;;;;;4995312;28;20057;-75
2023/04/27 10:46:14;;;;;;;1.50;0.90;;;;;;;;;;4992417;28;20096;-72
2023/04/27 10:48:42;;;;;;;3.78;1.27;;;;;;;;;;4990857;28;20038;-78
2023/04/27 10:51:07;;;;;;;1.05;0.90;;;;;;;;;;4993793;28;20031;-81
2023/04/27 10:53:34;;;;;;;3.55;1.40;;;;;;;;;;4994327;28;20085;-77
2023/04/27 10:56:05;;;;;;;2.10;1.10;;;;;;;;;;4997961;28;20061;-78
2023/04/27 10:58:35;;;;;;;2.97;1.10;;;;;;;;;;4998403;28;20046;-79
2023/04/27 11:01:00;;;;;;;2.87;0.90;;;;;;;;;;4998258;28;20078;-77
2023/04/27 11:03:26;;;;;;;4.38;1.20;;;;;;;;;;4999790;28;20431;-80
2023/04/27 11:06:01;;;;;;;1.60;1.10;;;;;;;;;;4995430;28;20026;-76
2023/04/27 11:08:26;;;;;;;2.38;1.00;;;;;;;;;;5001263;28;20077;-76
2023/04/27 11:10:52;;;;;;;2.13;1.00;;;;;;;;;;5001222;28;20053;-77
2023/04/27 11:13:22;;;;;;;1.65;0.98;;;;;;;;;;5000940;28;20031;-74
2023/04/27 11:15:53;;;;;;;4.53;1.35;;;;;;;;;;4989652;28;20032;-76
2023/04/27 11:18:21;;;;;;;2.25;1.00;;;;;;;;;;4990169;28;20034;-72
2023/04/27 11:20:52;;;;;;;2.05;0.90;;;;;;;;;;4987946;28;20041;-74
2023/04/27 11:23:27;;;;;;;1.20;0.80;;;;;;;;;;4990116;28;20094;-74
2023/04/27 11:25:56;;;;;;;1.65;0.90;;;;;;;;;;4989887;28;20069;-79
2023/04/27 11:28:23;;;;;;;1.15;0.80;;;;;;;;;;4979151;28;20372;-77
2023/04/27 11:30:58;;;;;;;2.88;0.85;;;;;;;;;;4990386;28;20037;-76
2023/04/27 11:33:23;;;;;;;3.03;0.90;;;;;;;;;;4997991;28;20097;-78
2023/04/27 11:35:49;;;;;;;1.13;0.80;;;;;;;;;;4997905;28;20254;-77
2023/04/27 11:38:16;;;;;;;4.25;0.95;;;;;;;;;;4998108;28;20026;-77
2023/04/27 11:40:41;;;;;;;0.73;0.70;;;;;;;;;;4989626;28;20030;-78
2023/04/27 11:43:11;;;;;;;3.72;1.15;;;;;;;;;;4989192;28;20072;-78
2023/04/27 11:45:41;;;;;;;2.10;0.77;;;;;;;;;;4989380;28;20031;-77
2023/04/27 11:48:11;;;;;;;1.20;0.70;;;;;;;;;;4994772;28;20611;-79
2023/04/27 11:50:37;;;;;;;;;;;;;;;;;;4991275;28;20057;-81
2023/04/27 11:53:02;;;;;;;1.42;0.80;;;;;;;;;;4988776;28;20475;-79
2023/04/27 11:55:28;;;;;;;1.50;0.80;;;;;;;;;;4983307;28;20015;-79
2023/04/27 11:57:58;;;;;;;2.58;0.80;;;;;;;;;;4970526;28;20586;-77
2023/04/27 12:00:23;;;;;;;1.77;0.77;;;;;;;;;;4980254;28;20101;-76
2023/04/27 12:02:49;;;;;;;1.88;0.70;;;;;;;;;;4969145;28;20102;-77
2023/04/27 12:05:15;;;;;;;2.33;0.77;;;;;;;;;;4987438;28;20118;-75
2023/04/27 12:07:42;;;;;;;1.38;0.68;;;;;;;;;;4988399;28;20047;-75
2023/04/27 12:10:07;;;;;;;1.92;0.70;;;;;;;;;;4993982;28;20338;-76
2023/04/27 12:12:33;;;;;;;2.22;0.75;;;;;;;;;;4992918;28;20053;-76
2023/04/27 12:14:58;;;;;;;2.38;0.75;;;;;;;;;;4988083;28;20101;-75
2023/04/27 12:17:24;;;;;;;1.70;0.95;;;;;;;;;;4987026;28;20042;-76
2023/04/27 12:19:49;;;;;;;3.25;0.88;;;;;;;;;;4986708;28;20066;-76
2023/04/27 12:22:15;;;;;;;3.00;0.90;;;;;;;;;;4986529;28;20032;-76
2023/04/27 12:24:41;;;;;;;1.50;0.80;;;;;;;;;;4986113;28;20129;-76
2023/04/27 12:27:07;;;;;;;4.63;1.08;;;;;;;;;;4986564;28;20548;-75
2023/04/27 12:29:32;;;;;;;2.35;0.88;;;;;;;;;;4987904;28;20030;-76
2023/04/27 12:31:58;;;;;;;1.08;0.80;;;;;;;;;;4987999;28;20103;-76
2023/04/27 12:34:24;;;;;;;1.85;0.90;;;;;;;;;;4989622;28;20072;-74
2023/04/27 12:36:53;;;;;;;2.78;0.80;;;;;;;;;;4989546;28;20034;-76
2023/04/27 12:39:19;;;;;;;1.00;0.73;;;;;;;;;;4989677;28;20148;-76
2023/04/27 12:41:49;;;;;;;4.30;0.80;;;;;;;;;;4988029;28;20027;-76
2023/04/27 12:44:16;;;;;;;1.00;0.77;;;;;;;;;;4988532;28;20031;-76
2023/04/27 12:46:42;;;;;;;1.95;0.90;;;;;;;;;;4989260;28;20105;-76
2023/04/27 12:49:09;;;;;;;1.95;0.80;;;;;;;;;;4989438;28;20034;-76
2023/04/27 12:51:35;;;;;;;1.77;0.70;;;;;;;;;;4989243;28;20091;-76
2023/04/27 12:54:05;;;;;;;2.38;0.80;;;;;;;;;;4989478;28;20049;-76
2023/04/27 12:56:34;;;;;;;1.00;0.70;;;;;;;;;;4989314;28;20084;-76
2023/04/27 12:58:59;;;;;;;1.60;0.70;;;;;;;;;;4989023;28;20536;-74
2023/04/27 13:01:32;;;;;;;1.50;0.70;;;;;;;;;;4989150;28;20617;-76
2023/04/27 13:04:00;;;;;;;2.88;0.60;;;;;;;;;;4989399;28;20080;-73
2023/04/27 13:06:26;;;;;;;1.35;0.80;;;;;;;;;;4989332;28;20030;-76
2023/04/27 13:08:52;;;;;;;4.43;0.70;;;;;;;;;;4989140;28;20035;-76
2023/04/27 13:11:17;;;;;;;1.20;0.88;;;;;;;;;;4989192;28;20406;-75
2023/04/27 13:13:46;;;;;;;1.10;0.75;;;;;;;;;;4988898;28;20057;-75
2023/04/27 13:16:12;;;;;;;1.17;0.70;;;;;;;;;;4991570;28;20105;-76
2023/04/27 13:18:39;;;;;;;2.58;0.70;;;;;;;;;;4991167;28;20165;-75
2023/04/27 13:21:05;;;;;;;1.00;0.60;;;;;;;;;;4992578;28;20093;-75
2023/04/27 13:23:31;;;;;;;1.45;0.60;;;;;;;;;;4992414;28;20022;-76
2023/04/27 13:25:56;;;;;;;2.72;0.88;;;;;;;;;;4992821;28;20575;-76
2023/04/27 13:28:22;;;;;;;1.80;0.85;;;;;;;;;;4992338;28;20076;-76
2023/04/27 13:30:47;;;;;;;2.30;0.70;;;;;;;;;;4992741;28;20057;-76
2023/04/27 13:33:13;;;;;;;1.40;0.70;;;;;;;;;;4991030;28;20559;-76
2023/04/27 13:35:39;;;;;;;2.28;0.60;;;;;;;;;;4992372;28;20037;-77
2023/04/27 13:38:05;;;;;;;1.02;0.70;;;;;;;;;;4992035;28;20031;-76
2023/04/27 13:40:30;;;;;;;2.00;0.68;;;;;;;;;;4992485;28;20109;-75
2023/04/27 13:42:56;;;;;;;1.55;0.68;;;;;;;;;;4992164;28;20034;-78
2023/04/27 13:45:21;;;;;;;1.35;0.93;;;;;;;;;;4992289;28;20085;-75
2023/04/27 13:47:46;;;;;;;1.20;0.82;;;;;;;;;;4992179;28;20030;-76
2023/04/27 13:50:12;;;;;;;2.88;0.60;;;;;;;;;;4992140;28;20038;-73
2023/04/27 13:52:38;;;;;;;1.23;0.68;;;;;;;;;;4991614;28;20026;-76
2023/04/27 13:55:05;;;;;;;2.42;1.50;;;;;;;;;;4992254;28;20026;-74
2023/04/27 13:57:31;;;;;;;2.20;1.40;;;;;;;;;;4991646;28;20030;-77
2023/04/27 13:59:59;;;;;;;2.33;1.10;;;;;;;;;;4992115;28;20114;-74
2023/04/27 14:02:25;;;;;;;2.92;0.90;;;;;;;;;;4991691;28;20109;-77
2023/04/27 14:04:51;;;;;;;1.35;0.60;;;;;;;;;;4991978;28;20098;-77
2023/04/27 14:07:17;;;;;;;1.15;0.70;;;;;;;;;;4991771;28;20407;-77
2023/04/27 14:09:42;;;;;;;6.20;0.80;;;;;;;;;;4990357;28;20103;-77
2023/04/27 14:12:08;;;;;;;2.97;0.85;;;;;;;;;;4991581;28;20030;-76
2023/04/27 14:14:35;;;;;;;5.35;0.80;;;;;;;;;;4990190;28;20244;-77
2023/04/27 14:17:01;;;;;;;1.58;0.80;;;;;;;;;;4991838;28;20145;-77
2023/04/27 14:19:26;;;;;;;1.90;1.00;;;;;;;;;;4991724;28;20105;-77
2023/04/27 14:21:52;;;;;;;1.02;0.63;;;;;;;;;;4990240;28;20022;-78
2023/04/27 14:24:17;;;;;;;2.53;0.90;;;;;;;;;;4991264;28;20502;-77
2023/04/27 14:26:45;;;;;;;1.92;0.70;;;;;;;;;;4991461;28;20049;-77
2023/04/27 14:29:10;;;;;;;1.80;0.70;;;;;;;;;;4989941;28;20060;-77
2023/04/27 14:31:37;;;;;;;2.50;0.70;;;;;;;;;;4991577;28;20113;-77
2023/04/27 14:34:03;;;;;;;2.75;0.90;;;;;;;;;;4991112;28;20022;-77
2023/04/27 14:36:28;;;;;;;1.92;0.90;;;;;;;;;;4991265;28;20089;-77
2023/04/27 14:38:54;;;;;;;4.22;1.20;;;;;;;;;;4991227;28;20072;-77
2023/04/27 14:41:19;;;;;;;2.88;0.82;;;;;;;;;;4991369;28;20124;-75